Time;durP1;ratioP1;P1;durP2;ratioP2;P2;SDS_P1;SDS_P2;PMS_P1;PMS_P2;Temp;Humidity;BMP_temperature;BMP_pressure;BME280_temperature;BME280_humidity;BME280_pressure;Samples;Min_cycle;Max_cycle;Signal;HPM_P1;HPM_P2
2022/04/24 00:00:07;;;;;;;1.90;1.70;;;19.50;49.30;;;;;;4352817;32;20433;-68
2022/04/24 00:02:33;;;;;;;2.58;1.60;;;19.50;50.20;;;;;;4353056;32;20076;-68
2022/04/24 00:04:59;;;;;;;2.58;1.80;;;19.50;49.30;;;;;;4353325;32;20521;-68
2022/04/24 00:07:25;;;;;;;1.92;1.70;;;19.50;49.30;;;;;;4354434;32;20100;-68
2022/04/24 00:09:51;;;;;;;1.90;1.65;;;19.50;49.30;;;;;;4353235;32;20590;-68
2022/04/24 00:12:18;;;;;;;2.97;1.70;;;19.40;49.30;;;;;;4352755;32;20166;-68
2022/04/24 00:14:44;;;;;;;1.85;1.67;;;19.50;49.40;;;;;;4352908;32;20502;-68
2022/04/24 00:17:11;;;;;;;1.83;1.67;;;19.40;49.40;;;;;;4352721;32;20091;-68
2022/04/24 00:19:37;;;;;;;2.17;1.98;;;19.40;49.40;;;;;;4352570;32;20292;-68
2022/04/24 00:22:03;;;;;;;1.73;1.50;;;19.40;49.40;;;;;;4336590;32;20123;-68
2022/04/24 00:24:29;;;;;;;1.60;1.50;;;19.40;49.40;;;;;;4352668;32;20524;-68
2022/04/24 00:26:55;;;;;;;2.25;1.80;;;19.40;49.40;;;;;;4352268;32;20411;-68
2022/04/24 00:29:21;;;;;;;1.52;1.42;;;19.50;49.50;;;;;;4352395;32;20127;-68
2022/04/24 00:31:48;;;;;;;4.35;1.52;;;19.40;49.40;;;;;;4350633;32;20116;-67
2022/04/24 00:34:13;;;;;;;1.90;1.58;;;19.40;49.50;;;;;;4352595;32;20072;-67
2022/04/24 00:36:39;;;;;;;2.05;1.80;;;19.40;49.50;;;;;;4352407;32;20076;-68
2022/04/24 00:39:05;;;;;;;2.53;1.70;;;19.40;49.50;;;;;;4352567;32;20072;-68
2022/04/24 00:41:31;;;;;;;3.92;1.63;;;19.40;49.60;;;;;;4339181;33;20241;-68
2022/04/24 00:43:57;;;;;;;1.58;1.35;;;19.40;49.70;;;;;;4339572;32;20088;-68
2022/04/24 00:46:48;;;;;;;2.13;1.67;;;19.40;49.70;;;;;;4351179;32;20142;-68
2022/04/24 00:49:14;;;;;;;2.25;1.60;;;19.40;49.60;;;;;;4351778;32;20100;-68
2022/04/24 00:51:40;;;;;;;2.35;1.50;;;19.40;49.60;;;;;;4351074;32;20410;-68
2022/04/24 00:54:08;;;;;;;4.75;1.48;;;19.40;49.70;;;;;;4351183;32;20667;-68
2022/04/24 00:56:39;;;;;;;3.20;1.58;;;19.40;49.70;;;;;;4353249;32;20091;-68
2022/04/24 00:59:08;;;;;;;2.53;1.42;;;19.40;49.70;;;;;;4353645;32;20088;-68
2022/04/24 01:01:34;;;;;;;1.90;1.58;;;19.40;49.60;;;;;;4353745;32;20149;-68
2022/04/24 01:04:02;;;;;;;1.67;1.55;;;19.30;49.50;;;;;;4354059;33;20137;-68
2022/04/24 01:06:31;;;;;;;1.60;1.50;;;19.40;49.60;;;;;;4353824;33;20069;-68
2022/04/24 01:09:10;;;;;;;2.08;1.75;;;19.30;49.50;;;;;;4340520;33;20147;-68
2022/04/24 01:11:37;;;;;;;1.98;1.30;;;19.40;49.60;;;;;;4340963;33;20120;-68
2022/04/24 01:14:03;;;;;;;1.40;1.30;;;19.30;49.50;;;;;;4340223;33;20095;-68
2022/04/24 01:16:29;;;;;;;2.72;1.50;;;19.30;49.40;;;;;;4353934;33;20426;-68
2022/04/24 01:18:56;;;;;;;1.58;1.45;;;19.30;49.50;;;;;;4353749;33;20545;-68
2022/04/24 01:21:21;;;;;;;1.83;1.50;;;19.30;49.40;;;;;;4340458;33;20099;-68
2022/04/24 01:23:47;;;;;;;1.80;1.70;;;19.30;49.50;;;;;;4354081;33;20064;-68
2022/04/24 01:26:13;;;;;;;2.30;1.42;;;19.30;49.40;;;;;;4353893;33;20080;-68
2022/04/24 01:28:39;;;;;;;2.28;1.40;;;19.30;49.40;;;;;;4340086;33;20402;-68
2022/04/24 01:31:05;;;;;;;1.77;1.50;;;19.30;49.40;;;;;;4353862;33;20079;-68
2022/04/24 01:33:31;;;;;;;1.63;1.42;;;19.30;49.40;;;;;;4355156;32;20080;-68
2022/04/24 01:35:57;;;;;;;1.65;1.55;;;19.30;49.40;;;;;;4343064;32;20400;-68
2022/04/24 01:38:23;;;;;;;1.50;1.38;;;19.30;49.40;;;;;;4356733;32;20095;-68
2022/04/24 01:40:49;;;;;;;1.90;1.40;;;19.30;49.40;;;;;;4343246;32;20076;-68
2022/04/24 01:43:16;;;;;;;1.92;1.50;;;19.20;49.40;;;;;;4343131;32;20068;-69
2022/04/24 01:45:43;;;;;;;1.38;1.27;;;19.20;49.40;;;;;;4343094;32;20075;-68
2022/04/24 01:48:10;;;;;;;1.50;1.40;;;19.20;49.30;;;;;;4356338;32;20084;-68
2022/04/24 01:50:36;;;;;;;1.75;1.60;;;19.30;49.40;;;;;;4356542;32;20079;-68
2022/04/24 01:53:02;;;;;;;1.15;1.08;;;19.20;49.30;;;;;;4356459;32;20084;-68
2022/04/24 01:55:30;;;;;;;2.25;1.58;;;19.20;49.30;;;;;;4356092;32;20075;-68
2022/04/24 01:57:56;;;;;;;2.92;1.30;;;19.20;49.40;;;;;;4355944;32;20210;-68
2022/04/24 02:00:22;;;;;;;1.25;1.15;;;19.20;49.30;;;;;;4356267;32;20394;-68
2022/04/24 02:02:48;;;;;;;1.92;1.65;;;19.20;49.30;;;;;;4356250;32;20580;-68
2022/04/24 02:05:14;;;;;;;2.08;1.50;;;19.20;49.40;;;;;;4356011;32;20076;-69
2022/04/24 02:07:40;;;;;;;1.95;1.27;;;19.20;49.40;;;;;;4356398;32;20076;-68
2022/04/24 02:10:06;;;;;;;1.60;1.40;;;19.20;49.40;;;;;;4356614;32;20135;-68
2022/04/24 02:12:32;;;;;;;1.73;1.50;;;19.20;49.30;;;;;;4356080;32;20225;-69
2022/04/24 02:14:58;;;;;;;1.65;1.42;;;19.20;50.30;;;;;;4356046;32;20169;-68
2022/04/24 02:17:24;;;;;;;1.30;1.20;;;19.10;49.30;;;;;;4356286;32;20076;-68
2022/04/24 02:19:50;;;;;;;1.50;1.40;;;19.10;50.20;;;;;;4342788;32;20483;-68
2022/04/24 02:22:15;;;;;;;1.73;1.50;;;19.10;49.30;;;;;;4348217;32;20081;-68
2022/04/24 02:24:41;;;;;;;1.95;1.42;;;19.10;49.30;;;;;;4326418;33;20081;-68
2022/04/24 02:27:09;;;;;;;1.50;1.35;;;19.10;49.30;;;;;;4300836;33;20088;-68
2022/04/24 02:29:35;;;;;;;1.30;1.20;;;19.10;49.30;;;;;;4326277;33;20165;-68
2022/04/24 02:32:01;;;;;;;1.48;1.27;;;19.10;49.30;;;;;;4326427;33;20065;-68
2022/04/24 02:34:26;;;;;;;1.45;1.30;;;19.10;49.30;;;;;;4326197;33;20164;-68
2022/04/24 02:36:53;;;;;;;1.60;1.38;;;19.10;49.30;;;;;;4326111;33;20161;-68
2022/04/24 02:39:19;;;;;;;1.40;1.30;;;19.10;49.30;;;;;;4326063;33;20512;-68
2022/04/24 02:41:45;;;;;;;3.10;1.35;;;19.10;49.30;;;;;;4326219;33;20091;-68
2022/04/24 02:44:11;;;;;;;2.28;1.55;;;19.10;49.30;;;;;;4325595;33;20092;-68
2022/04/24 02:46:37;;;;;;;1.45;1.35;;;19.10;49.30;;;;;;4326016;33;20124;-68
2022/04/24 02:49:03;;;;;;;1.52;1.42;;;19.10;49.30;;;;;;4313011;33;20210;-68
2022/04/24 02:51:29;;;;;;;1.45;1.23;;;19.10;49.30;;;;;;4312976;33;20479;-68
2022/04/24 02:53:55;;;;;;;1.60;1.50;;;19.10;49.30;;;;;;4326106;33;20488;-68
2022/04/24 02:56:21;;;;;;;1.77;1.30;;;19.10;49.30;;;;;;4325965;33;20215;-68
2022/04/24 02:58:48;;;;;;;1.35;1.25;;;19.00;49.20;;;;;;4312448;33;20554;-68
2022/04/24 03:01:14;;;;;;;1.27;1.17;;;19.00;49.30;;;;;;4312697;33;20555;-68
2022/04/24 03:03:42;;;;;;;1.63;1.50;;;19.00;49.30;;;;;;4326100;33;20087;-68
2022/04/24 03:06:08;;;;;;;1.48;1.20;;;19.00;49.30;;;;;;4325924;33;20392;-68
2022/04/24 03:08:34;;;;;;;1.45;1.30;;;19.00;49.30;;;;;;4325654;33;20088;-68
2022/04/24 03:11:00;;;;;;;1.80;1.20;;;19.00;49.30;;;;;;4325656;33;20080;-68
2022/04/24 03:13:26;;;;;;;1.60;1.50;;;19.00;49.30;;;;;;4325546;33;20080;-68
2022/04/24 03:15:51;;;;;;;1.60;1.45;;;19.00;49.30;;;;;;4312623;33;20080;-68
2022/04/24 03:18:18;;;;;;;3.78;1.40;;;19.00;49.30;;;;;;4312602;33;20057;-68
2022/04/24 03:20:44;;;;;;;1.50;1.40;;;19.00;49.30;;;;;;4325751;33;20111;-68
2022/04/24 03:23:10;;;;;;;1.10;1.00;;;19.00;49.30;;;;;;4325686;33;20160;-68
2022/04/24 03:25:36;;;;;;;1.58;1.30;;;19.00;49.30;;;;;;4325597;33;20223;-68
2022/04/24 03:28:02;;;;;;;1.65;1.35;;;18.90;49.20;;;;;;4325399;33;20080;-68
2022/04/24 03:30:28;;;;;;;1.60;1.50;;;19.00;49.30;;;;;;4325519;33;20073;-68
2022/04/24 03:32:54;;;;;;;1.30;1.20;;;18.90;49.20;;;;;;4312257;33;20151;-68
2022/04/24 03:35:20;;;;;;;1.30;1.20;;;18.90;49.20;;;;;;4325346;33;20088;-69
2022/04/24 03:37:46;;;;;;;1.48;1.38;;;18.90;49.20;;;;;;4312006;33;20164;-68
2022/04/24 03:40:13;;;;;;;1.58;1.10;;;18.90;49.20;;;;;;4325391;33;20084;-69
2022/04/24 03:42:39;;;;;;;1.20;1.10;;;18.90;49.20;;;;;;4325227;33;20418;-69
2022/04/24 03:45:11;;;;;;;1.45;1.35;;;18.90;49.20;;;;;;4325160;33;20085;-69
2022/04/24 03:47:38;;;;;;;2.78;1.30;;;18.90;49.30;;;;;;4325349;33;20132;-69
2022/04/24 03:50:05;;;;;;;1.60;1.50;;;18.90;49.20;;;;;;4325254;33;20072;-68
2022/04/24 03:52:32;;;;;;;1.50;1.40;;;18.90;49.30;;;;;;4288074;33;20103;-68
2022/04/24 03:54:58;;;;;;;1.85;1.30;;;18.90;49.20;;;;;;4324844;33;20192;-68
2022/04/24 03:57:24;;;;;;;1.50;1.20;;;18.90;49.30;;;;;;4324735;33;20089;-68
2022/04/24 03:59:50;;;;;;;1.20;1.10;;;18.90;49.30;;;;;;4325177;33;20160;-68
2022/04/24 04:02:17;;;;;;;1.40;1.30;;;18.80;49.20;;;;;;4325090;33;20110;-68
2022/04/24 04:04:42;;;;;;;1.40;1.30;;;18.90;49.30;;;;;;4324856;33;20072;-68
2022/04/24 04:07:14;;;;;;;1.70;1.42;;;18.80;49.20;;;;;;4324862;33;20089;-68
2022/04/24 04:09:40;;;;;;;1.65;1.25;;;18.80;49.20;;;;;;4324986;33;20065;-68
2022/04/24 04:12:06;;;;;;;1.27;1.17;;;18.80;49.30;;;;;;4324961;33;20492;-68
2022/04/24 04:14:32;;;;;;;1.20;1.10;;;18.80;49.20;;;;;;4324931;33;20169;-68
2022/04/24 04:16:58;;;;;;;2.13;1.40;;;18.80;49.20;;;;;;4324986;33;20065;-68
2022/04/24 04:19:24;;;;;;;1.35;1.20;;;18.80;49.30;;;;;;4324726;33;20498;-68
2022/04/24 04:21:50;;;;;;;1.10;0.95;;;18.80;49.20;;;;;;4324852;33;20089;-68
2022/04/24 04:24:16;;;;;;;1.25;1.15;;;18.80;49.30;;;;;;4325018;33;20101;-68
2022/04/24 04:26:42;;;;;;;1.30;1.20;;;18.80;49.20;;;;;;4324767;33;20557;-68
2022/04/24 04:29:08;;;;;;;1.40;1.30;;;18.80;49.20;;;;;;4311293;33;20084;-69
2022/04/24 04:31:34;;;;;;;1.48;1.20;;;18.80;49.30;;;;;;4324439;33;20104;-68
2022/04/24 04:33:59;;;;;;;1.33;1.23;;;18.70;49.20;;;;;;4324745;33;20097;-68
2022/04/24 04:36:25;;;;;;;1.50;1.20;;;18.80;49.20;;;;;;4324811;33;20076;-68
2022/04/24 04:38:51;;;;;;;0.93;0.93;;;18.70;49.20;;;;;;4324795;33;20495;-68
2022/04/24 04:41:17;;;;;;;1.63;1.40;;;18.70;49.20;;;;;;4324611;33;20123;-68
2022/04/24 04:43:43;;;;;;;1.35;1.15;;;18.70;50.20;;;;;;4324754;33;20353;-68
2022/04/24 04:46:08;;;;;;;1.35;1.25;;;18.70;49.20;;;;;;4324834;33;20073;-68
2022/04/24 04:48:35;;;;;;;1.67;1.38;;;18.70;49.20;;;;;;4324656;33;20081;-68
2022/04/24 04:51:02;;;;;;;1.48;1.38;;;18.70;49.20;;;;;;4324127;33;20081;-68
2022/04/24 04:53:27;;;;;;;1.30;1.20;;;18.70;49.20;;;;;;4324708;33;20108;-68
2022/04/24 04:55:53;;;;;;;1.40;1.30;;;18.70;49.20;;;;;;4311420;33;20076;-68
2022/04/24 04:58:19;;;;;;;1.30;1.20;;;18.70;49.20;;;;;;4324310;33;20395;-68
2022/04/24 05:00:45;;;;;;;1.73;1.38;;;18.70;49.20;;;;;;4311091;33;20379;-68
2022/04/24 05:03:11;;;;;;;1.20;1.10;;;18.70;49.20;;;;;;4324291;33;20084;-68
2022/04/24 05:05:37;;;;;;;1.42;1.30;;;18.70;49.20;;;;;;4310960;33;20171;-68
2022/04/24 05:08:03;;;;;;;1.48;1.17;;;18.70;49.20;;;;;;4326147;33;20072;-70
2022/04/24 05:10:29;;;;;;;1.27;1.17;;;18.70;49.20;;;;;;4315780;33;20176;-68
2022/04/24 05:12:55;;;;;;;1.50;0.95;;;18.70;49.20;;;;;;4329224;33;20076;-68
2022/04/24 05:15:21;;;;;;;1.67;1.20;;;18.70;49.20;;;;;;4329332;33;20077;-69
2022/04/24 05:17:47;;;;;;;1.63;1.20;;;18.70;49.30;;;;;;4303754;33;20126;-68
2022/04/24 05:20:13;;;;;;;1.15;1.05;;;18.70;49.30;;;;;;4329269;33;20085;-68
2022/04/24 05:22:40;;;;;;;2.25;1.40;;;18.70;49.30;;;;;;4329216;33;20083;-69
2022/04/24 05:25:09;;;;;;;1.30;1.10;;;18.70;49.30;;;;;;4329236;33;20096;-68
2022/04/24 05:27:39;;;;;;;1.77;1.30;;;18.60;49.30;;;;;;4315695;33;20073;-68
2022/04/24 05:30:07;;;;;;;1.23;1.08;;;18.60;49.30;;;;;;4329498;33;20519;-68
2022/04/24 05:32:42;;;;;;;1.27;1.17;;;18.60;49.30;;;;;;4329172;33;20065;-68
2022/04/24 05:35:08;;;;;;;1.35;1.20;;;18.60;49.30;;;;;;4349025;32;20136;-69
2022/04/24 05:37:35;;;;;;;1.65;1.15;;;18.60;49.30;;;;;;4357638;32;20083;-69
2022/04/24 05:40:01;;;;;;;2.13;1.27;;;18.60;49.30;;;;;;4344256;32;20084;-68
2022/04/24 05:42:26;;;;;;;1.65;1.40;;;18.60;49.30;;;;;;4357693;32;20080;-69
2022/04/24 05:44:53;;;;;;;1.20;1.10;;;18.60;49.30;;;;;;4357437;32;20155;-70
2022/04/24 05:47:18;;;;;;;1.23;1.13;;;18.60;49.30;;;;;;4344020;32;20103;-68
2022/04/24 05:49:44;;;;;;;1.48;1.23;;;18.60;49.30;;;;;;4358214;32;20095;-69
2022/04/24 05:52:11;;;;;;;1.15;1.02;;;18.60;49.30;;;;;;4332983;32;20080;-69
2022/04/24 05:54:37;;;;;;;1.85;1.15;;;18.60;49.30;;;;;;4344312;32;20123;-69
2022/04/24 05:57:03;;;;;;;1.10;0.90;;;18.60;49.30;;;;;;4355792;32;20151;-69
2022/04/24 05:59:29;;;;;;;1.20;1.02;;;18.60;49.30;;;;;;4357342;32;20087;-69
2022/04/24 06:01:55;;;;;;;1.45;1.20;;;18.70;49.30;;;;;;4357368;32;20071;-69
2022/04/24 06:04:20;;;;;;;2.05;1.13;;;18.70;49.30;;;;;;4357693;32;20087;-69
2022/04/24 06:06:46;;;;;;;1.10;1.00;;;18.70;49.30;;;;;;4358030;32;20064;-69
2022/04/24 06:09:13;;;;;;;1.30;1.10;;;18.60;49.20;;;;;;4332592;32;20509;-69
2022/04/24 06:11:41;;;;;;;1.42;1.10;;;18.70;49.30;;;;;;4358494;32;20083;-69
2022/04/24 06:14:07;;;;;;;1.40;1.02;;;18.70;49.40;;;;;;4345388;32;20506;-69
2022/04/24 06:16:33;;;;;;;1.42;0.90;;;18.70;49.40;;;;;;4358162;32;20503;-69
2022/04/24 06:18:59;;;;;;;2.72;1.15;;;18.70;49.40;;;;;;4358085;32;20164;-69
2022/04/24 06:21:24;;;;;;;0.85;0.80;;;18.70;49.40;;;;;;4342708;32;20080;-69
2022/04/24 06:23:51;;;;;;;1.52;0.90;;;18.70;49.40;;;;;;4356073;32;20518;-69
2022/04/24 06:26:17;;;;;;;1.13;1.02;;;18.70;49.40;;;;;;4356108;32;20479;-69
2022/04/24 06:28:43;;;;;;;1.25;1.15;;;18.70;49.40;;;;;;4355715;32;20072;-69
2022/04/24 06:31:08;;;;;;;1.25;1.00;;;18.70;49.40;;;;;;4355859;32;20064;-69
2022/04/24 06:33:34;;;;;;;1.55;0.93;;;18.70;49.40;;;;;;4356140;32;20394;-69
2022/04/24 06:36:01;;;;;;;1.55;1.00;;;18.70;49.30;;;;;;4342641;32;20079;-69
2022/04/24 06:38:27;;;;;;;1.38;1.13;;;18.80;49.40;;;;;;4356043;32;20087;-69
2022/04/24 06:40:53;;;;;;;2.38;1.30;;;18.70;50.20;;;;;;4355641;32;20104;-69
2022/04/24 06:43:19;;;;;;;1.48;1.10;;;18.70;49.30;;;;;;4330319;32;20115;-69
2022/04/24 06:45:44;;;;;;;1.52;1.10;;;18.80;49.40;;;;;;4355801;32;20390;-69
2022/04/24 06:48:16;;;;;;;1.73;1.20;;;18.80;49.40;;;;;;4354648;32;20091;-69
2022/04/24 06:50:43;;;;;;;1.25;0.88;;;18.80;49.30;;;;;;4341474;32;20094;-70
2022/04/24 06:53:14;;;;;;;1.38;0.80;;;18.80;49.30;;;;;;4355244;32;20098;-69
2022/04/24 06:55:42;;;;;;;1.05;0.88;;;18.80;49.30;;;;;;4342089;32;20076;-70
2022/04/24 06:58:09;;;;;;;1.00;0.90;;;18.80;49.30;;;;;;4355443;32;20584;-69
2022/04/24 07:00:38;;;;;;;1.83;1.35;;;18.80;49.40;;;;;;4355633;32;20072;-68
2022/04/24 07:03:13;;;;;;;1.75;1.00;;;18.80;49.40;;;;;;4355573;32;20090;-69
2022/04/24 07:05:39;;;;;;;0.73;0.73;;;18.90;49.50;;;;;;4355905;32;20139;-69
2022/04/24 07:08:05;;;;;;;0.88;0.80;;;18.90;49.50;;;;;;4355275;32;20076;-69
2022/04/24 07:10:31;;;;;;;1.35;1.02;;;18.90;49.50;;;;;;4354913;32;20188;-68
2022/04/24 07:12:58;;;;;;;2.55;0.90;;;18.90;49.50;;;;;;4354360;32;20124;-67
2022/04/24 07:15:28;;;;;;;1.00;0.90;;;18.90;49.50;;;;;;4350552;32;20076;-67
2022/04/24 07:17:56;;;;;;;2.08;1.13;;;19.00;49.50;;;;;;4354615;32;20068;-67
2022/04/24 07:20:22;;;;;;;1.85;1.20;;;19.00;49.40;;;;;;4354717;32;20090;-67
2022/04/24 07:22:53;;;;;;;1.23;0.88;;;19.10;49.30;;;;;;4355492;32;20499;-67
2022/04/24 07:25:22;;;;;;;4.25;1.40;;;19.10;49.20;;;;;;4355320;32;20092;-67
2022/04/24 07:27:49;;;;;;;1.55;1.00;;;19.10;49.00;;;;;;4341198;32;20072;-67
2022/04/24 07:30:17;;;;;;;3.20;1.40;;;19.20;49.00;;;;;;4341566;32;20222;-67
2022/04/24 07:32:51;;;;;;;1.40;1.10;;;19.20;48.90;;;;;;4354848;32;20087;-66
2022/04/24 07:35:19;;;;;;;4.15;1.35;;;19.20;48.80;;;;;;4355502;32;20482;-67
2022/04/24 07:37:47;;;;;;;2.38;1.17;;;19.30;48.80;;;;;;4355165;32;20402;-66
2022/04/24 07:40:16;;;;;;;3.08;1.17;;;19.30;48.80;;;;;;4355276;32;20147;-66
2022/04/24 07:42:46;;;;;;;3.50;1.40;;;19.30;48.70;;;;;;4355243;32;20068;-67
2022/04/24 07:45:32;;;;;;;2.97;1.30;;;19.40;48.70;;;;;;4355091;32;20223;-67
2022/04/24 07:47:59;;;;;;;2.50;1.35;;;19.40;48.60;;;;;;4355036;32;20684;-67
2022/04/24 07:50:30;;;;;;;1.88;1.17;;;19.40;48.60;;;;;;4354805;32;20499;-66
2022/04/24 07:52:57;;;;;;;1.85;1.33;;;19.40;48.50;;;;;;4355012;32;20425;-67
2022/04/24 07:55:24;;;;;;;2.63;1.10;;;19.50;48.40;;;;;;4329330;32;20115;-67
2022/04/24 07:57:53;;;;;;;3.67;1.10;;;19.50;48.40;;;;;;4354410;32;20080;-66
2022/04/24 08:00:21;;;;;;;2.33;1.30;;;19.50;48.30;;;;;;4354734;32;20103;-67
2022/04/24 08:03:08;;;;;;;2.58;1.35;;;19.60;48.20;;;;;;4354489;32;20103;-68
2022/04/24 08:05:39;;;;;;;3.13;1.33;;;19.60;48.10;;;;;;4354668;32;20084;-67
2022/04/24 08:08:09;;;;;;;2.58;1.10;;;19.60;47.90;;;;;;4354732;32;20086;-67
2022/04/24 08:10:38;;;;;;;3.10;1.27;;;19.60;47.80;;;;;;4354883;32;20064;-67
2022/04/24 08:13:05;;;;;;;3.35;1.30;;;19.60;47.80;;;;;;4354551;32;20090;-68
2022/04/24 08:15:35;;;;;;;3.08;1.05;;;19.70;47.70;;;;;;4341196;32;20067;-67
2022/04/24 08:18:02;;;;;;;2.42;1.02;;;19.70;47.60;;;;;;4354485;32;20563;-68
2022/04/24 08:20:28;;;;;;;4.03;1.30;;;19.70;47.50;;;;;;4351378;32;20120;-68
2022/04/24 08:22:55;;;;;;;4.00;1.38;;;19.70;47.50;;;;;;4353642;32;20060;-67
2022/04/24 08:25:22;;;;;;;3.13;1.10;;;19.70;47.40;;;;;;4353674;32;20092;-67
2022/04/24 08:27:49;;;;;;;4.20;1.63;;;19.70;47.40;;;;;;4353197;32;20131;-67
2022/04/24 08:30:17;;;;;;;3.50;1.60;;;19.70;47.30;;;;;;4353424;32;20092;-68
2022/04/24 08:32:44;;;;;;;2.75;1.17;;;19.80;47.30;;;;;;4353452;32;20503;-67
2022/04/24 08:35:12;;;;;;;3.30;1.40;;;19.80;47.30;;;;;;4352933;32;20083;-67
2022/04/24 08:37:38;;;;;;;1.95;1.10;;;19.80;47.30;;;;;;4350041;32;20132;-67
2022/04/24 08:40:07;;;;;;;3.38;1.70;;;19.80;47.30;;;;;;4340717;32;20413;-67
2022/04/24 08:42:33;;;;;;;3.33;1.15;;;19.80;47.20;;;;;;4353833;32;20080;-67
2022/04/24 08:45:00;;;;;;;3.55;1.13;;;19.80;47.00;;;;;;4354454;32;20100;-67
2022/04/24 08:47:27;;;;;;;3.72;1.40;;;19.80;47.00;;;;;;4340535;32;20076;-67
2022/04/24 08:49:54;;;;;;;2.25;1.25;;;19.80;46.90;;;;;;4340373;32;20203;-67
2022/04/24 08:52:22;;;;;;;4.53;1.67;;;19.80;46.80;;;;;;4354280;32;20171;-67
2022/04/24 08:54:49;;;;;;;4.03;1.35;;;19.90;46.80;;;;;;4341025;32;20096;-67
2022/04/24 08:57:17;;;;;;;3.88;1.42;;;19.90;46.70;;;;;;4354292;32;20529;-67
2022/04/24 08:59:44;;;;;;;3.08;1.05;;;19.90;46.70;;;;;;4353812;32;20072;-67
2022/04/24 09:02:10;;;;;;;2.92;1.20;;;19.90;46.40;;;;;;4353881;32;20064;-67
2022/04/24 09:04:40;;;;;;;2.92;1.30;;;19.90;46.30;;;;;;4340646;33;20506;-68
2022/04/24 09:07:09;;;;;;;6.43;1.42;;;19.90;46.30;;;;;;4354128;33;20115;-67
2022/04/24 09:09:42;;;;;;;2.45;1.13;;;20.00;46.20;;;;;;4353928;33;20090;-67
2022/04/24 09:12:13;;;;;;;2.55;1.40;;;20.00;46.20;;;;;;4354183;33;20116;-68
2022/04/24 09:14:40;;;;;;;2.00;1.25;;;20.00;46.30;;;;;;4340964;33;20586;-67
2022/04/24 09:17:16;;;;;;;2.90;1.58;;;20.00;46.20;;;;;;4340626;33;20088;-67
2022/04/24 09:19:43;;;;;;;5.70;1.45;;;20.00;46.30;;;;;;4354132;33;20080;-67
2022/04/24 09:22:10;;;;;;;2.63;1.45;;;20.00;46.30;;;;;;4340357;33;20196;-66
2022/04/24 09:24:48;;;;;;;2.17;1.30;;;20.00;46.30;;;;;;4353776;33;20099;-67
2022/04/24 09:27:24;;;;;;;4.70;1.77;;;20.00;46.40;;;;;;4353357;33;20095;-67
2022/04/24 09:30:03;;;;;;;4.45;1.35;;;20.00;46.30;;;;;;4352437;33;20096;-67
2022/04/24 09:32:30;;;;;;;3.42;1.40;;;20.10;46.40;;;;;;4353042;33;20207;-67
2022/04/24 09:34:57;;;;;;;2.25;1.30;;;20.10;46.40;;;;;;4352803;33;20100;-67
2022/04/24 09:37:24;;;;;;;4.68;1.60;;;20.10;46.40;;;;;;4352924;33;20080;-67
2022/04/24 09:39:50;;;;;;;3.92;1.63;;;20.10;46.40;;;;;;4352644;33;20072;-67
2022/04/24 09:42:18;;;;;;;5.15;1.67;;;20.10;46.40;;;;;;4352719;33;20100;-67
2022/04/24 09:44:45;;;;;;;4.43;1.63;;;20.10;46.40;;;;;;4339406;33;20629;-67
2022/04/24 09:47:12;;;;;;;5.13;1.50;;;20.10;46.30;;;;;;4353516;33;20515;-67
2022/04/24 09:49:40;;;;;;;4.22;1.88;;;20.10;46.40;;;;;;4340102;33;20130;-67
2022/04/24 09:52:17;;;;;;;5.68;1.60;;;20.10;47.20;;;;;;4353704;33;20645;-67
2022/04/24 09:54:45;;;;;;;4.18;1.58;;;20.10;46.20;;;;;;4355171;32;20064;-67
2022/04/24 09:57:14;;;;;;;3.05;1.38;;;20.10;46.40;;;;;;4356692;32;20095;-67
2022/04/24 09:59:43;;;;;;;4.28;1.35;;;20.10;46.40;;;;;;4356477;32;20185;-68
2022/04/24 10:02:12;;;;;;;4.97;2.10;;;20.20;46.50;;;;;;4355655;32;20095;-67
2022/04/24 10:04:39;;;;;;;6.47;1.90;;;20.10;46.40;;;;;;4356590;32;20221;-67
2022/04/24 10:07:09;;;;;;;4.90;1.58;;;20.10;46.40;;;;;;4356014;32;20207;-68
2022/04/24 10:09:40;;;;;;;4.45;1.77;;;20.10;46.40;;;;;;4356472;32;20084;-67
2022/04/24 10:12:14;;;;;;;3.85;1.77;;;20.20;46.40;;;;;;4355741;32;20094;-67
2022/04/24 10:14:46;;;;;;;;;;;20.20;46.30;;;;;;4356900;32;20561;-67
2022/04/24 10:17:14;;;;;;;4.57;1.90;;;20.20;46.30;;;;;;4356235;32;19972;-68
2022/04/24 10:20:09;;;;;;;4.00;1.58;;;20.10;46.20;;;;;;4342729;32;20302;-67
2022/04/24 10:22:39;;;;;;;5.03;1.48;;;20.10;46.20;;;;;;4356339;32;20410;-67
2022/04/24 10:25:07;;;;;;;2.33;1.40;;;20.20;46.30;;;;;;4356451;32;20578;-67
2022/04/24 10:27:43;;;;;;;4.18;1.70;;;20.20;46.30;;;;;;4356090;32;20084;-67
2022/04/24 10:30:19;;;;;;;5.70;1.88;;;20.10;46.20;;;;;;4355777;32;20437;-67
2022/04/24 10:32:48;;;;;;;5.03;1.95;;;20.10;46.20;;;;;;4356123;32;20080;-67
2022/04/24 10:35:19;;;;;;;6.28;2.25;;;20.10;46.20;;;;;;4342201;32;20076;-67
2022/04/24 10:37:47;;;;;;;4.90;1.65;;;20.10;46.20;;;;;;4355893;32;20092;-67
2022/04/24 10:40:16;;;;;;;4.63;1.80;;;20.10;46.20;;;;;;4355899;32;20201;-67
2022/04/24 10:42:43;;;;;;;4.43;2.08;;;20.10;46.20;;;;;;4356010;32;20084;-67
2022/04/24 10:45:14;;;;;;;5.63;2.08;;;20.10;46.20;;;;;;4355782;32;20273;-68
2022/04/24 10:48:05;;;;;;;5.13;1.90;;;20.10;46.40;;;;;;4355805;32;20175;-67
2022/04/24 10:50:31;;;;;;;3.42;1.60;;;20.10;46.40;;;;;;4355193;32;20115;-67
2022/04/24 10:52:56;;;;;;;5.40;1.67;;;20.10;46.30;;;;;;4355052;32;20202;-68
2022/04/24 10:55:30;;;;;;;3.83;1.83;;;20.10;46.30;;;;;;4355435;32;20088;-67
2022/04/24 10:58:00;;;;;;;3.25;1.60;;;20.10;46.40;;;;;;4354107;32;20406;-67
2022/04/24 11:00:34;;;;;;;5.50;1.95;;;20.10;46.30;;;;;;4339988;33;20468;-66
2022/04/24 11:03:13;;;;;;;4.20;1.60;;;20.10;46.20;;;;;;4340021;33;20629;-66
2022/04/24 11:05:41;;;;;;;3.42;1.83;;;20.10;46.20;;;;;;4339258;33;20178;-66
2022/04/24 11:08:08;;;;;;;4.22;1.80;;;20.10;46.30;;;;;;4339967;33;20495;-67
2022/04/24 11:10:42;;;;;;;4.40;2.08;;;20.10;46.30;;;;;;4340292;33;20076;-68
2022/04/24 11:13:13;;;;;;;4.60;1.95;;;20.10;46.40;;;;;;4339943;33;20335;-68
2022/04/24 11:15:47;;;;;;;5.88;2.00;;;20.10;46.20;;;;;;4340262;33;20491;-67
2022/04/24 11:18:24;;;;;;;2.65;1.60;;;20.00;46.40;;;;;;4340938;33;20080;-67
2022/04/24 11:21:00;;;;;;;2.65;1.70;;;20.10;46.50;;;;;;4340664;33;20502;-67
2022/04/24 11:23:27;;;;;;;5.97;2.17;;;20.10;46.40;;;;;;4340601;33;20085;-67
2022/04/24 11:25:55;;;;;;;4.30;1.80;;;20.00;46.30;;;;;;4340449;33;20131;-67
2022/04/24 11:28:21;;;;;;;2.85;1.63;;;20.10;46.40;;;;;;4340481;33;20427;-67
2022/04/24 11:30:47;;;;;;;3.20;1.75;;;20.00;46.30;;;;;;4326759;33;20088;-67
2022/04/24 11:33:13;;;;;;;4.65;1.90;;;20.00;46.40;;;;;;4340113;33;20080;-67
2022/04/24 11:35:40;;;;;;;3.90;1.50;;;20.00;46.50;;;;;;4340513;33;20383;-67
2022/04/24 11:38:08;;;;;;;2.47;1.60;;;20.00;46.20;;;;;;4340242;33;20222;-67
2022/04/24 11:40:42;;;;;;;4.47;1.75;;;20.00;46.50;;;;;;4340450;33;20080;-68
2022/04/24 11:43:08;;;;;;;4.82;1.70;;;20.00;46.70;;;;;;4339415;33;20148;-67
2022/04/24 11:51:16;;;;;;;;;;;20.00;46.40;;;;;;4340052;33;20659;-68
2022/04/24 11:53:44;;;;;;;4.13;1.73;;;20.00;46.30;;;;;;4339350;33;20407;-66
2022/04/24 11:56:11;;;;;;;4.30;1.75;;;20.00;46.50;;;;;;4339201;33;20146;-68
2022/04/24 11:58:39;;;;;;;4.55;1.83;;;20.00;46.50;;;;;;4339139;33;20092;-76
2022/04/24 12:01:09;;;;;;;7.22;1.83;;;20.00;46.30;;;;;;4339218;33;20088;-67
2022/04/24 12:03:37;;;;;;;9.60;1.80;;;20.00;46.40;;;;;;4338245;33;20222;-68
2022/04/24 12:06:05;;;;;;;8.35;1.73;;;20.00;46.30;;;;;;4339107;33;20189;-69
2022/04/24 12:08:45;;;;;;;4.85;1.73;;;20.00;46.40;;;;;;4325319;33;20065;-68
2022/04/24 12:11:24;;;;;;;8.40;1.98;;;20.00;46.20;;;;;;4338395;33;20120;-68
2022/04/24 12:14:01;;;;;;;3.70;1.80;;;20.00;46.30;;;;;;4326495;33;20155;-69
2022/04/24 12:16:27;;;;;;;12.88;1.90;;;20.00;46.30;;;;;;4338736;33;20099;-68
2022/04/24 12:18:57;;;;;;;6.68;2.30;;;20.00;46.30;;;;;;4338847;33;20076;-68
2022/04/24 12:21:24;;;;;;;5.95;1.88;;;20.00;46.20;;;;;;4339409;33;20100;-68
2022/04/24 12:23:51;;;;;;;4.90;1.98;;;20.00;46.20;;;;;;4326092;33;20092;-68
2022/04/24 12:26:17;;;;;;;4.43;1.70;;;20.00;46.30;;;;;;4339880;33;20092;-67
2022/04/24 12:28:43;;;;;;;4.25;1.65;;;20.00;46.30;;;;;;4326025;33;20151;-68
2022/04/24 12:31:22;;;;;;;2.85;1.67;;;20.00;46.30;;;;;;4339217;33;20182;-68
2022/04/24 12:33:51;;;;;;;4.15;1.90;;;20.00;46.10;;;;;;4339530;33;20349;-68
2022/04/24 12:36:17;;;;;;;4.43;1.80;;;20.00;46.10;;;;;;4339483;33;20069;-68
2022/04/24 12:39:03;;;;;;;3.58;2.20;;;20.10;46.10;;;;;;4339221;33;20080;-67
2022/04/24 12:41:30;;;;;;;3.55;1.80;;;20.10;45.80;;;;;;4339432;33;20178;-68
2022/04/24 12:44:00;;;;;;;4.47;1.90;;;20.10;45.80;;;;;;4339441;33;20065;-68
2022/04/24 12:46:27;;;;;;;3.72;1.75;;;20.10;45.60;;;;;;4339380;33;20147;-68
2022/04/24 12:48:57;;;;;;;3.88;1.65;;;20.10;45.60;;;;;;4339391;33;20087;-68
2022/04/24 12:51:25;;;;;;;3.38;1.70;;;20.10;45.60;;;;;;4339386;33;20073;-68
2022/04/24 12:53:55;;;;;;;5.13;1.63;;;20.10;45.40;;;;;;4339291;33;20507;-69
2022/04/24 12:56:21;;;;;;;3.22;1.80;;;20.10;45.50;;;;;;4339316;33;20073;-69